createdAt,value
2024-03-02T00:00:10.202Z,24.23
2024-03-02T00:02:43.636Z,26.05
2024-03-02T00:05:14.693Z,22.38
2024-03-02T00:07:45.667Z,18.90
2024-03-02T00:10:37.813Z,22.42
2024-03-02T00:15:44.923Z,23.95
2024-03-02T00:18:21.818Z,21.15
2024-03-02T00:20:48.452Z,19.70
2024-03-02T00:23:18.337Z,23.65
2024-03-02T00:25:47.731Z,21.38
2024-03-02T00:28:20.234Z,15.20
2024-03-02T00:31:01.055Z,26.35
2024-03-02T00:33:29.582Z,24.52
2024-03-02T00:35:56.673Z,31.45
2024-03-02T00:38:23.632Z,34.40
2024-03-02T00:40:50.318Z,23.25
2024-03-02T00:43:43.523Z,25.77
2024-03-02T00:46:17.318Z,26.75
2024-03-02T00:48:52.316Z,28.73
2024-03-02T00:51:18.919Z,28.73
2024-03-02T00:53:45.424Z,28.55
2024-03-02T00:56:15.701Z,25.40
2024-03-02T00:58:42.102Z,21.10
2024-03-02T01:01:08.822Z,25.55
2024-03-02T01:03:35.630Z,23.15
2024-03-02T01:06:02.186Z,23.30
2024-03-02T01:08:28.694Z,31.98
2024-03-02T01:10:55.766Z,26.33
2024-03-02T01:13:24.173Z,28.27
2024-03-02T01:15:51.383Z,30.50
2024-03-02T01:18:18.203Z,27.60
2024-03-02T01:20:44.805Z,17.98
2024-03-02T01:23:11.226Z,24.23
2024-03-02T01:25:37.879Z,23.60
2024-03-02T01:28:05.892Z,22.90
2024-03-02T01:30:32.368Z,47.35
2024-03-02T01:33:00.676Z,16.83
2024-03-02T01:35:27.747Z,23.75
2024-03-02T01:37:54.629Z,25.33
2024-03-02T01:40:21.484Z,23.48
2024-03-02T01:42:48.045Z,20.30
2024-03-02T01:45:14.682Z,25.92
2024-03-02T01:47:41.303Z,35.30
2024-03-02T01:50:08.487Z,20.48
2024-03-02T01:52:34.940Z,19.20
2024-03-02T01:55:01.468Z,21.23
2024-03-02T01:57:28.059Z,31.40
2024-03-02T01:59:54.721Z,26.70
2024-03-02T02:02:21.209Z,29.73
2024-03-02T02:04:47.710Z,38.78
2024-03-02T02:07:15.390Z,36.13
2024-03-02T02:09:44.956Z,36.47
2024-03-02T02:12:11.540Z,34.97
2024-03-02T02:14:38.230Z,23.60
2024-03-02T02:17:04.834Z,30.13
2024-03-02T02:19:31.232Z,31.70
2024-03-02T02:21:57.691Z,28.35
2024-03-02T02:24:24.240Z,23.98
2024-03-02T02:26:50.807Z,26.08
2024-03-02T02:29:17.302Z,18.55
2024-03-02T02:31:43.942Z,23.10
2024-03-02T02:34:10.548Z,41.50
2024-03-02T02:36:40.262Z,30.40
2024-03-02T02:39:08.819Z,18.27
2024-03-02T02:41:35.189Z,20.45
2024-03-02T02:44:01.567Z,16.38
2024-03-02T02:46:27.985Z,35.88
2024-03-02T02:48:54.912Z,20.98
2024-03-02T02:51:21.449Z,18.52
2024-03-02T02:53:48.003Z,29.48
2024-03-02T02:56:14.401Z,30.85
2024-03-02T02:58:42.364Z,26.42
2024-03-02T03:01:08.916Z,19.67
2024-03-02T03:03:35.545Z,25.80
2024-03-02T03:06:03.252Z,15.95
2024-03-02T03:08:30.078Z,18.25
2024-03-02T03:10:56.582Z,34.58
2024-03-02T03:13:23.225Z,24.58
2024-03-02T03:15:49.760Z,17.75
2024-03-02T03:18:16.269Z,22.50
2024-03-02T03:20:42.751Z,20.70
2024-03-02T03:23:09.766Z,24.83
2024-03-02T03:25:36.203Z,21.63
2024-03-02T03:28:02.945Z,23.52
2024-03-02T03:30:29.568Z,23.23
2024-03-02T03:32:55.964Z,22.60
2024-03-02T03:35:22.362Z,27.95
2024-03-02T03:37:48.798Z,18.05
2024-03-02T03:40:15.805Z,29.42
2024-03-02T03:42:42.243Z,30.33
2024-03-02T03:45:09.374Z,15.27
2024-03-02T03:47:36.024Z,21.95
2024-03-02T03:50:05.651Z,27.98
2024-03-02T03:52:32.109Z,33.17
2024-03-02T03:54:58.614Z,29.23
2024-03-02T03:57:25.181Z,20.35
2024-03-02T03:59:51.715Z,18.90
2024-03-02T04:02:18.127Z,16.55
2024-03-02T04:04:44.794Z,16.95
2024-03-02T04:07:11.281Z,28.55
2024-03-02T04:09:37.695Z,16.85
2024-03-02T04:12:04.600Z,37.22
2024-03-02T04:14:31.049Z,23.52
2024-03-02T04:16:57.470Z,28.58
2024-03-02T04:19:23.843Z,33.08
2024-03-02T04:21:50.377Z,33.85
2024-03-02T04:24:16.915Z,29.42
2024-03-02T04:26:43.293Z,23.67
2024-03-02T04:29:09.678Z,15.65
2024-03-02T04:31:36.088Z,29.63
2024-03-02T04:34:02.574Z,23.85
2024-03-02T04:36:29.052Z,35.13
2024-03-02T04:38:55.478Z,27.90
2024-03-02T04:41:21.858Z,18.92
2024-03-02T04:43:48.295Z,43.10
2024-03-02T04:46:14.715Z,17.08
2024-03-02T04:48:41.166Z,27.92
2024-03-02T04:51:07.576Z,23.98
2024-03-02T04:53:34.005Z,23.13
2024-03-02T04:56:09.258Z,20.02
2024-03-02T04:58:35.663Z,23.77
2024-03-02T05:01:02.103Z,18.75
2024-03-02T05:03:28.577Z,36.13
2024-03-02T05:05:55.534Z,27.85
2024-03-02T05:08:21.929Z,34.03
2024-03-02T05:10:48.386Z,14.43
2024-03-02T05:13:14.777Z,21.08
2024-03-02T05:15:41.728Z,23.38
2024-03-02T05:18:08.193Z,18.75
2024-03-02T05:20:34.599Z,29.42
2024-03-02T05:23:01.207Z,15.10
2024-03-02T05:25:27.600Z,39.22
2024-03-02T05:27:54.163Z,22.75
2024-03-02T05:30:20.609Z,20.23
2024-03-02T05:32:47.051Z,32.70
2024-03-02T05:35:13.962Z,28.70
2024-03-02T05:37:40.592Z,34.60
2024-03-02T05:40:07.678Z,41.47
2024-03-02T05:42:34.188Z,31.80
2024-03-02T05:45:00.721Z,35.65
2024-03-02T05:47:27.354Z,28.40
2024-03-02T05:49:53.737Z,43.00
2024-03-02T05:52:20.135Z,21.90
2024-03-02T05:54:46.602Z,27.48
2024-03-02T05:57:33.055Z,33.83
2024-03-02T05:59:59.911Z,21.48
2024-03-02T06:02:26.360Z,17.42
2024-03-02T06:04:55.966Z,17.35
2024-03-02T06:07:22.373Z,24.08
2024-03-02T06:09:51.806Z,21.88
2024-03-02T06:12:18.560Z,27.17
2024-03-02T06:14:45.018Z,28.15
2024-03-02T06:17:11.407Z,25.50
2024-03-02T06:19:37.867Z,22.17
2024-03-02T06:22:04.997Z,17.70
2024-03-02T06:24:31.441Z,35.35
2024-03-02T06:26:57.831Z,28.77
2024-03-02T06:29:24.206Z,23.05
2024-03-02T06:31:53.467Z,22.33
2024-03-02T06:34:21.239Z,15.40
2024-03-02T06:36:47.637Z,25.58
2024-03-02T06:39:14.039Z,28.42
2024-03-02T06:41:40.455Z,22.13
2024-03-02T06:44:07.574Z,43.92
2024-03-02T06:46:33.971Z,24.83
2024-03-02T06:49:00.618Z,28.55
2024-03-02T06:51:27.407Z,35.08
2024-03-02T06:53:53.835Z,26.00
2024-03-02T06:56:20.275Z,15.93
2024-03-02T06:58:46.817Z,32.08
2024-03-02T07:01:13.289Z,28.42
2024-03-02T07:03:42.604Z,41.40
2024-03-02T07:06:09.036Z,18.70
2024-03-02T07:08:35.665Z,29.60
2024-03-02T07:11:02.150Z,37.95
2024-03-02T07:13:28.624Z,24.60
2024-03-02T07:16:00.958Z,20.35
2024-03-02T07:18:27.479Z,37.92
2024-03-02T07:20:53.911Z,20.05
2024-03-02T07:23:21.608Z,26.17
2024-03-02T07:28:17.424Z,27.83
2024-03-02T07:30:44.238Z,44.67
2024-03-02T07:33:10.724Z,42.35
2024-03-02T07:35:37.120Z,29.50
2024-03-02T07:38:03.604Z,34.88
2024-03-02T07:40:30.260Z,29.73
2024-03-02T07:42:57.487Z,33.55
2024-03-02T07:45:23.974Z,40.53
2024-03-02T07:47:51.112Z,38.13
2024-03-02T07:50:17.745Z,60.45
2024-03-02T07:52:44.171Z,39.25
2024-03-02T07:55:10.559Z,58.15
2024-03-02T07:57:37.002Z,57.35
2024-03-02T08:00:03.914Z,90.00
2024-03-02T08:02:30.352Z,47.15
2024-03-02T08:04:56.814Z,62.72
2024-03-02T08:07:23.377Z,51.78
2024-03-02T08:09:49.760Z,53.90
2024-03-02T08:12:16.363Z,75.07
2024-03-02T08:14:42.933Z,50.38
2024-03-02T08:17:10.637Z,45.80
2024-03-02T08:19:37.955Z,52.92
2024-03-02T08:22:04.763Z,50.88
2024-03-02T08:24:31.433Z,63.95
2024-03-02T08:26:58.901Z,57.30
2024-03-02T08:29:25.638Z,39.47
2024-03-02T08:31:52.046Z,42.05
2024-03-02T08:34:18.438Z,40.60
2024-03-02T08:36:45.105Z,33.67
2024-03-02T08:39:16.181Z,38.95
2024-03-02T08:41:46.383Z,33.73
2024-03-02T08:44:13.652Z,31.73
2024-03-02T08:46:40.743Z,33.00
2024-03-02T08:49:08.104Z,37.92
2024-03-02T08:51:34.604Z,32.00
2024-03-02T08:54:01.045Z,29.33
2024-03-02T08:56:27.542Z,34.15
2024-03-02T08:58:54.233Z,30.73
2024-03-02T09:01:20.775Z,31.10
2024-03-02T09:03:47.565Z,31.02
2024-03-02T09:06:15.257Z,28.00
2024-03-02T09:08:41.944Z,25.63
2024-03-02T09:11:08.605Z,26.17
2024-03-02T09:13:35.404Z,28.52
2024-03-02T09:16:01.931Z,28.02
2024-03-02T09:18:28.380Z,29.17
2024-03-02T09:20:54.782Z,27.67
2024-03-02T09:23:22.118Z,31.75
2024-03-02T09:25:48.800Z,32.78
2024-03-02T09:28:17.055Z,29.02
2024-03-02T09:30:43.520Z,29.45
2024-03-02T09:35:39.293Z,33.05
2024-03-02T09:38:05.873Z,24.55
2024-03-02T09:40:33.271Z,27.38
2024-03-02T09:43:00.111Z,34.15
2024-03-02T09:45:27.792Z,26.08
2024-03-02T09:47:54.252Z,30.02
2024-03-02T09:50:23.771Z,26.15
2024-03-02T09:52:53.563Z,26.52
2024-03-02T09:55:20.351Z,28.38
2024-03-02T09:57:47.465Z,29.40
2024-03-02T10:00:16.108Z,26.30
2024-03-02T10:02:43.435Z,22.70
2024-03-02T10:05:10.362Z,26.63
2024-03-02T10:07:36.811Z,22.92
2024-03-02T10:10:16.482Z,26.63
2024-03-02T10:12:42.995Z,25.98
2024-03-02T10:15:10.725Z,28.85
2024-03-02T10:17:37.591Z,28.33
2024-03-02T10:20:26.473Z,24.58
2024-03-02T10:22:53.183Z,23.25
2024-03-02T10:25:43.057Z,26.90
2024-03-02T10:28:17.563Z,26.50
2024-03-02T10:30:44.298Z,29.83
2024-03-02T10:33:10.856Z,26.38
2024-03-02T10:35:38.845Z,25.80
2024-03-02T10:38:07.197Z,25.33
2024-03-02T10:40:34.054Z,24.88
2024-03-02T10:43:04.681Z,24.52
2024-03-02T10:45:32.726Z,25.55
2024-03-02T10:47:59.497Z,24.92
2024-03-02T10:50:25.923Z,22.13
2024-03-02T10:52:52.496Z,23.77
2024-03-02T10:55:20.094Z,23.25
2024-03-02T10:57:54.847Z,21.38
2024-03-02T11:00:27.764Z,24.83
2024-03-02T11:02:59.246Z,27.27
2024-03-02T11:05:32.490Z,25.00
2024-03-02T11:08:04.417Z,25.20
2024-03-02T11:10:52.494Z,28.55
2024-03-02T11:13:26.393Z,27.25
2024-03-02T11:15:56.875Z,28.05
2024-03-02T11:18:23.834Z,21.90
2024-03-02T11:20:50.435Z,28.20
2024-03-02T11:23:16.861Z,27.73
2024-03-02T11:25:43.250Z,31.33
2024-03-02T11:28:12.829Z,30.25
2024-03-02T11:30:39.858Z,27.08
2024-03-02T11:33:12.368Z,25.63
2024-03-02T11:35:44.434Z,24.95
2024-03-02T11:38:11.488Z,26.38
2024-03-02T11:40:40.416Z,27.40
2024-03-02T11:43:09.158Z,24.95
2024-03-02T11:45:41.198Z,30.00
2024-03-02T11:48:13.634Z,26.23
2024-03-02T11:50:48.108Z,23.67
2024-03-02T11:53:14.983Z,24.48
2024-03-02T11:55:42.003Z,29.45
2024-03-02T11:58:09.528Z,25.30
2024-03-02T12:00:36.450Z,25.00
2024-03-02T12:03:06.490Z,19.88
2024-03-02T12:05:33.930Z,25.70
2024-03-02T12:08:03.123Z,23.88
2024-03-02T12:10:30.490Z,22.50
2024-03-02T12:13:00.866Z,29.23
2024-03-02T12:15:28.565Z,24.95
2024-03-02T12:18:02.962Z,24.95
2024-03-02T12:20:31.679Z,24.50
2024-03-02T12:23:03.311Z,18.73
2024-03-02T12:25:32.533Z,19.17
2024-03-02T12:28:01.624Z,21.58
2024-03-02T12:30:31.122Z,15.75
2024-03-02T12:32:57.799Z,19.70
2024-03-02T12:35:25.981Z,20.98
2024-03-02T12:37:53.845Z,17.90
2024-03-02T12:40:21.487Z,16.10
2024-03-02T12:42:49.202Z,15.57
2024-03-02T12:45:16.553Z,17.67
2024-03-02T12:47:43.800Z,19.13
2024-03-02T12:50:11.420Z,22.70
2024-03-02T12:52:38.054Z,14.68
2024-03-02T12:55:06.502Z,16.33
2024-03-02T12:57:34.422Z,18.52
2024-03-02T13:00:02.096Z,15.60
2024-03-02T13:02:30.520Z,18.17
2024-03-02T13:04:57.739Z,18.95
2024-03-02T13:07:27.756Z,17.80
2024-03-02T13:09:58.698Z,20.08
2024-03-02T13:12:25.868Z,16.65
2024-03-02T13:14:55.614Z,20.10
2024-03-02T13:17:22.378Z,12.93
2024-03-02T13:19:56.591Z,15.35
2024-03-02T13:22:23.524Z,19.40
2024-03-02T13:24:51.577Z,19.90
2024-03-02T13:27:21.087Z,18.48
2024-03-02T13:29:50.865Z,21.40
2024-03-02T13:32:18.112Z,23.02
2024-03-02T13:34:44.702Z,22.58
2024-03-02T13:37:11.266Z,20.73
2024-03-02T13:39:43.966Z,20.30
2024-03-02T13:42:15.927Z,19.05
2024-03-02T13:44:46.629Z,20.77
2024-03-02T13:47:13.055Z,19.92
2024-03-02T13:49:44.652Z,15.55
2024-03-02T13:52:14.290Z,23.02
2024-03-02T13:54:42.804Z,23.00
2024-03-02T13:57:10.656Z,20.38
2024-03-02T13:59:37.970Z,20.60
2024-03-02T14:02:06.079Z,18.38
2024-03-02T14:04:34.593Z,21.02
2024-03-02T14:07:01.733Z,22.63
2024-03-02T14:09:28.986Z,17.63
2024-03-02T14:11:56.562Z,26.88
2024-03-02T14:14:23.045Z,23.45
2024-03-02T14:16:49.691Z,22.50
2024-03-02T14:19:16.182Z,22.52
2024-03-02T14:21:42.736Z,28.88
2024-03-02T14:24:09.365Z,25.15
2024-03-02T14:26:37.577Z,16.80
2024-03-02T14:29:04.584Z,22.52
2024-03-02T14:31:32.290Z,22.85
2024-03-02T14:33:59.369Z,22.92
2024-03-02T14:36:27.002Z,21.08
2024-03-02T14:38:53.531Z,19.45
2024-03-02T14:41:19.951Z,16.33
2024-03-02T14:43:46.381Z,20.05
2024-03-02T14:46:13.410Z,18.20
2024-03-02T14:48:40.175Z,20.20
2024-03-02T14:51:06.875Z,24.10
2024-03-02T14:53:33.331Z,17.15
2024-03-02T14:55:59.976Z,17.08
2024-03-02T14:58:27.649Z,18.65
2024-03-02T15:00:54.234Z,19.38
2024-03-02T15:03:20.772Z,20.70
2024-03-02T15:05:47.521Z,20.77
2024-03-02T15:08:14.062Z,16.95
2024-03-02T15:10:42.404Z,19.65
2024-03-02T15:13:10.087Z,19.58
2024-03-02T15:15:36.912Z,14.77
2024-03-02T15:18:06.523Z,15.07
2024-03-02T15:20:33.438Z,13.88
2024-03-02T15:23:00.066Z,15.35
2024-03-02T15:25:26.458Z,17.27
2024-03-02T15:27:52.951Z,20.35
2024-03-02T15:30:19.482Z,17.90
2024-03-02T15:32:45.951Z,18.98
2024-03-02T15:35:12.349Z,17.48
2024-03-02T15:37:38.755Z,18.38
2024-03-02T15:40:09.630Z,18.45
2024-03-02T15:42:36.637Z,20.45
2024-03-02T15:45:05.240Z,21.20
2024-03-02T15:47:31.888Z,21.02
2024-03-02T15:49:58.304Z,20.38
2024-03-02T15:52:24.668Z,20.08
2024-03-02T15:54:51.418Z,20.20
2024-03-02T15:57:18.123Z,19.98
2024-03-02T15:59:45.227Z,19.13
2024-03-02T16:02:11.788Z,21.27
2024-03-02T16:04:38.381Z,22.80
2024-03-02T16:07:04.995Z,19.30
2024-03-02T16:09:31.466Z,25.13
2024-03-02T16:11:57.990Z,19.15
2024-03-02T16:14:24.509Z,23.42
2024-03-02T16:16:51.032Z,18.27
2024-03-02T16:19:25.547Z,21.75
2024-03-02T16:21:58.953Z,20.63
2024-03-02T16:24:25.474Z,23.58
2024-03-02T16:26:51.975Z,24.25
2024-03-02T16:29:18.364Z,27.00
2024-03-02T16:31:44.803Z,23.33
2024-03-02T16:34:11.646Z,28.42
2024-03-02T16:36:39.225Z,24.35
2024-03-02T16:39:06.127Z,19.50
2024-03-02T16:41:34.057Z,26.00
2024-03-02T16:44:00.548Z,29.15
2024-03-02T16:46:27.085Z,28.48
2024-03-02T16:48:53.524Z,32.30
2024-03-02T16:51:19.977Z,34.30
2024-03-02T16:53:46.408Z,29.08
2024-03-02T16:56:12.885Z,27.60
2024-03-02T16:58:39.313Z,29.92
2024-03-02T17:01:05.803Z,28.13
2024-03-02T17:03:32.239Z,30.85
2024-03-02T17:05:58.675Z,25.80
2024-03-02T17:08:25.107Z,31.20
2024-03-02T17:10:51.789Z,30.67
2024-03-02T17:13:18.330Z,33.60
2024-03-02T17:15:44.863Z,28.15
2024-03-02T17:18:11.398Z,35.97
2024-03-02T17:20:37.880Z,34.97
2024-03-02T17:23:04.638Z,30.77
2024-03-02T17:25:31.048Z,29.02
2024-03-02T17:28:20.154Z,27.63
2024-03-02T17:30:46.640Z,34.22
2024-03-02T17:33:13.251Z,35.88
2024-03-02T17:35:39.747Z,29.42
2024-03-02T17:38:06.146Z,35.88
2024-03-02T17:40:32.745Z,34.03
2024-03-02T17:42:59.218Z,27.98
2024-03-02T17:45:25.747Z,27.73
2024-03-02T17:47:52.246Z,32.80
2024-03-02T17:50:18.699Z,36.15
2024-03-02T17:52:45.256Z,25.20
2024-03-02T17:55:11.746Z,30.00
2024-03-02T17:57:38.500Z,28.52
2024-03-02T18:00:06.045Z,37.30
2024-03-02T18:02:34.504Z,28.45
2024-03-02T18:05:00.912Z,31.30
2024-03-02T18:07:27.312Z,33.08
2024-03-02T18:09:53.873Z,32.00
2024-03-02T18:12:20.490Z,40.58
2024-03-02T18:14:46.933Z,40.15
2024-03-02T18:17:13.612Z,35.67
2024-03-02T18:19:40.172Z,31.50
2024-03-02T18:22:06.795Z,44.90
2024-03-02T18:24:36.482Z,40.88
2024-03-02T18:27:04.642Z,47.17
2024-03-02T18:29:31.049Z,33.28
2024-03-02T18:31:58.782Z,39.88
2024-03-02T18:34:25.414Z,45.58
2024-03-02T18:36:53.429Z,44.70
2024-03-02T18:39:20.955Z,32.33
2024-03-02T18:41:47.387Z,32.22
2024-03-02T18:44:13.841Z,29.70
2024-03-02T18:46:40.218Z,38.58
2024-03-02T18:49:07.164Z,38.13
2024-03-02T18:51:33.826Z,35.13
2024-03-02T18:54:00.231Z,36.28
2024-03-02T18:56:27.200Z,36.88
2024-03-02T18:58:53.769Z,47.65
2024-03-02T19:01:21.148Z,36.42
2024-03-02T19:03:47.991Z,38.65
2024-03-02T19:06:16.026Z,36.10
2024-03-02T19:08:42.757Z,45.42
2024-03-02T19:11:19.814Z,33.70
2024-03-02T19:13:46.429Z,45.67
2024-03-02T19:16:13.661Z,51.65
2024-03-02T19:18:41.079Z,48.47
2024-03-02T19:21:07.845Z,45.15
2024-03-02T19:23:40.343Z,46.17
2024-03-02T19:26:12.520Z,38.65
2024-03-02T19:28:38.945Z,54.42
2024-03-02T19:31:05.454Z,44.03
2024-03-02T19:33:31.971Z,53.35
2024-03-02T19:35:58.404Z,48.38
2024-03-02T19:38:26.491Z,47.83
2024-03-02T19:40:52.948Z,44.13
2024-03-02T19:43:19.555Z,45.58
2024-03-02T19:45:46.088Z,55.22
2024-03-02T19:48:12.716Z,57.20
2024-03-02T19:50:40.883Z,51.80
2024-03-02T19:53:07.267Z,59.47
2024-03-02T19:55:33.688Z,39.30
2024-03-02T19:58:00.189Z,43.28
2024-03-02T20:00:26.624Z,41.33
2024-03-02T20:02:53.088Z,56.83
2024-03-02T20:05:19.516Z,54.00
2024-03-02T20:07:46.052Z,51.47
2024-03-02T20:10:12.949Z,47.67
2024-03-02T20:12:39.603Z,54.30
2024-03-02T20:15:06.525Z,40.88
2024-03-02T20:17:33.117Z,37.22
2024-03-02T20:19:59.568Z,56.47
2024-03-02T20:22:26.127Z,51.65
2024-03-02T20:24:52.515Z,44.80
2024-03-02T20:27:22.496Z,48.15
2024-03-02T20:29:48.937Z,59.92
2024-03-02T20:32:15.708Z,52.78
2024-03-02T20:34:42.107Z,53.72
2024-03-02T20:37:08.567Z,58.00
2024-03-02T20:39:35.200Z,52.40
2024-03-02T20:42:01.714Z,45.33
2024-03-02T20:44:28.550Z,54.90
2024-03-02T20:46:55.069Z,41.30
2024-03-02T20:49:21.818Z,36.55
2024-03-02T20:51:48.297Z,52.67
2024-03-02T20:54:14.720Z,48.40
2024-03-02T20:56:44.115Z,42.20
2024-03-02T20:59:10.622Z,48.78
2024-03-02T21:04:23.873Z,49.72
2024-03-02T21:06:50.359Z,46.55
2024-03-02T21:09:16.815Z,43.42
2024-03-02T21:11:45.514Z,37.95
2024-03-02T21:14:12.444Z,48.92
2024-03-02T21:16:41.267Z,54.33
2024-03-02T21:19:08.867Z,45.70
2024-03-02T21:21:36.566Z,47.47
2024-03-02T21:24:03.179Z,50.45
2024-03-02T21:26:29.542Z,39.97
2024-03-02T21:28:55.942Z,46.50
2024-03-02T21:31:22.416Z,50.38
2024-03-02T21:33:48.935Z,44.95
2024-03-02T21:36:15.327Z,48.88
2024-03-02T21:38:41.724Z,59.72
2024-03-02T21:41:08.161Z,62.95
2024-03-02T21:43:35.108Z,67.55
2024-03-02T21:46:01.707Z,41.95
2024-03-02T21:48:28.213Z,55.38
2024-03-02T21:50:54.642Z,45.83
2024-03-02T21:53:21.126Z,56.45
2024-03-02T21:55:47.554Z,49.38
2024-03-02T21:58:14.396Z,61.78
2024-03-02T22:00:41.021Z,57.42
2024-03-02T22:03:07.587Z,53.03
2024-03-02T22:05:36.066Z,48.92
2024-03-02T22:08:02.503Z,45.97
2024-03-02T22:10:30.590Z,49.03
2024-03-02T22:12:57.206Z,45.17
2024-03-02T22:15:23.789Z,68.80
2024-03-02T22:17:50.303Z,58.15
2024-03-02T22:20:16.715Z,57.08
2024-03-02T22:22:43.123Z,67.63
2024-03-02T22:25:10.150Z,56.00
2024-03-02T22:27:40.719Z,52.17
2024-03-02T22:32:35.370Z,63.63
2024-03-02T22:35:02.089Z,49.90
2024-03-02T22:37:28.509Z,70.13
2024-03-02T22:39:55.017Z,62.78
2024-03-02T22:42:21.454Z,59.83
2024-03-02T22:44:47.945Z,58.03
2024-03-02T22:47:14.399Z,52.17
2024-03-02T22:49:40.884Z,62.60
2024-03-02T22:52:07.594Z,66.78
2024-03-02T22:54:34.088Z,69.65
2024-03-02T22:57:01.974Z,78.60
2024-03-02T22:59:28.452Z,52.55
2024-03-02T23:01:55.550Z,60.00
2024-03-02T23:04:22.167Z,66.25
2024-03-02T23:06:49.477Z,65.95
2024-03-02T23:09:15.996Z,57.53
2024-03-02T23:11:42.386Z,45.75
2024-03-02T23:14:09.210Z,60.63
2024-03-02T23:16:38.158Z,65.68
2024-03-02T23:19:04.657Z,61.38
2024-03-02T23:21:31.087Z,64.60
2024-03-02T23:23:58.715Z,89.00
2024-03-02T23:26:26.068Z,64.00
2024-03-02T23:28:52.612Z,67.38
2024-03-02T23:31:19.621Z,67.30
2024-03-02T23:33:48.072Z,78.82
2024-03-02T23:36:14.550Z,50.83
2024-03-02T23:38:40.972Z,70.40
2024-03-02T23:41:11.481Z,78.53
2024-03-02T23:43:38.778Z,66.93
2024-03-02T23:46:06.456Z,65.60
2024-03-02T23:48:33.112Z,60.78
2024-03-02T23:50:59.570Z,63.72
2024-03-02T23:53:25.936Z,97.03
2024-03-02T23:55:53.254Z,65.95
2024-03-02T23:58:20.644Z,96.50
